createdAt,value
2023-03-06T00:00:18.842Z,31.70
2023-03-06T00:01:18.839Z,28.80
2023-03-06T00:02:18.766Z,30.60
2023-03-06T00:03:18.860Z,31.30
2023-03-06T00:04:18.791Z,30.20
2023-03-06T00:05:18.763Z,27.50
2023-03-06T00:06:18.703Z,30.60
2023-03-06T00:07:18.741Z,26.80
2023-03-06T00:08:18.673Z,27.90
2023-03-06T00:09:18.683Z,30.20
2023-03-06T00:10:18.720Z,28.00
2023-03-06T00:11:18.652Z,28.00
2023-03-06T00:12:18.623Z,30.20
2023-03-06T00:13:18.641Z,25.40
2023-03-06T00:14:18.604Z,27.50
2023-03-06T00:15:18.596Z,26.80
2023-03-06T00:16:18.620Z,26.90
2023-03-06T00:17:18.607Z,27.70
2023-03-06T00:18:18.542Z,28.20
2023-03-06T00:19:18.558Z,28.20
2023-03-06T00:20:18.535Z,27.60
2023-03-06T00:21:18.482Z,30.80
2023-03-06T00:22:25.660Z,25.60
2023-03-06T00:23:18.468Z,27.10
2023-03-06T00:24:18.470Z,27.30
2023-03-06T00:25:18.476Z,27.50
2023-03-06T00:26:18.429Z,26.80
2023-03-06T00:27:18.420Z,25.40
2023-03-06T00:28:18.455Z,25.40
2023-03-06T00:29:18.387Z,29.30
2023-03-06T00:30:18.446Z,27.20
2023-03-06T00:31:18.395Z,24.30
2023-03-06T00:32:18.394Z,25.30
2023-03-06T00:33:18.347Z,25.50
2023-03-06T00:34:18.430Z,25.60
2023-03-06T00:35:18.357Z,24.80
2023-03-06T00:36:18.289Z,23.70
2023-03-06T00:37:18.303Z,24.70
2023-03-06T00:38:18.264Z,27.40
2023-03-06T00:39:18.276Z,25.70
2023-03-06T00:40:18.299Z,23.40
2023-03-06T00:41:18.233Z,27.30
2023-03-06T00:42:18.229Z,26.10
2023-03-06T00:43:18.280Z,28.40
2023-03-06T00:44:18.172Z,24.60
2023-03-06T00:45:18.161Z,25.20
2023-03-06T00:46:18.200Z,26.00
2023-03-06T00:47:18.163Z,26.90
2023-03-06T00:48:18.144Z,26.90
2023-03-06T00:49:18.162Z,25.80
2023-03-06T00:50:18.106Z,27.00
2023-03-06T00:51:18.097Z,25.80
2023-03-06T00:52:18.129Z,27.70
2023-03-06T00:53:18.064Z,27.60
2023-03-06T00:54:18.062Z,26.70
2023-03-06T00:55:18.090Z,25.50
2023-03-06T00:56:19.906Z,25.40
2023-03-06T00:57:18.023Z,26.10
2023-03-06T00:58:18.040Z,26.90
2023-03-06T00:59:18.056Z,24.90
2023-03-06T01:00:17.982Z,27.20
2023-03-06T01:01:17.976Z,25.40
2023-03-06T01:02:18.047Z,26.50
2023-03-06T01:03:17.932Z,25.20
2023-03-06T01:04:17.931Z,24.30
2023-03-06T01:05:17.901Z,26.00
2023-03-06T01:06:17.895Z,27.50
2023-03-06T01:07:17.897Z,24.60
2023-03-06T01:08:17.908Z,26.40
2023-03-06T01:09:17.846Z,27.20
2023-03-06T01:10:17.862Z,24.80
2023-03-06T01:11:17.853Z,24.90
2023-03-06T01:12:17.826Z,27.30
2023-03-06T01:13:17.796Z,27.10
2023-03-06T01:14:17.795Z,25.80
2023-03-06T01:15:17.764Z,26.60
2023-03-06T01:16:17.777Z,25.30
2023-03-06T01:17:17.818Z,24.30
2023-03-06T01:18:17.727Z,25.40
2023-03-06T01:19:17.750Z,27.60
2023-03-06T01:20:17.716Z,25.90
2023-03-06T01:21:17.697Z,26.40
2023-03-06T01:22:17.702Z,23.50
2023-03-06T01:23:34.100Z,24.80
2023-03-06T01:24:18.641Z,24.10
2023-03-06T01:25:17.630Z,24.90
2023-03-06T01:26:17.640Z,23.30
2023-03-06T01:27:17.652Z,24.50
2023-03-06T01:28:17.630Z,22.10
2023-03-06T01:29:17.602Z,22.00
2023-03-06T01:30:29.855Z,27.10
2023-03-06T01:31:17.558Z,21.70
2023-03-06T01:32:17.563Z,23.00
2023-03-06T01:33:17.639Z,25.40
2023-03-06T01:34:17.562Z,24.90
2023-03-06T01:35:17.528Z,26.40
2023-03-06T01:36:17.521Z,25.30
2023-03-06T01:37:17.629Z,24.20
2023-03-06T01:38:17.492Z,23.00
2023-03-06T01:39:17.619Z,27.00
2023-03-06T01:40:17.615Z,27.50
2023-03-06T01:41:17.433Z,25.60
2023-03-06T01:42:17.593Z,27.20
2023-03-06T01:43:17.434Z,26.30
2023-03-06T01:44:17.447Z,23.70
2023-03-06T01:45:17.622Z,26.20
2023-03-06T01:46:17.404Z,26.40
2023-03-06T01:47:17.345Z,24.20
2023-03-06T01:48:17.393Z,25.20
2023-03-06T01:49:17.300Z,24.70
2023-03-06T01:50:17.301Z,26.70
2023-03-06T01:51:17.303Z,26.30
2023-03-06T01:52:17.278Z,25.70
2023-03-06T01:53:17.236Z,26.80
2023-03-06T01:54:17.325Z,24.30
2023-03-06T01:55:17.295Z,28.50
2023-03-06T01:56:17.209Z,25.50
2023-03-06T01:57:17.236Z,29.70
2023-03-06T01:58:17.215Z,31.60
2023-03-06T01:59:17.155Z,27.60
2023-03-06T02:00:17.144Z,26.60
2023-03-06T02:01:17.229Z,26.50
2023-03-06T02:02:17.168Z,24.80
2023-03-06T02:03:17.142Z,24.60
2023-03-06T02:04:17.126Z,27.70
2023-03-06T02:05:17.099Z,26.30
2023-03-06T02:06:17.059Z,27.10
2023-03-06T02:07:17.210Z,24.60
2023-03-06T02:08:17.035Z,22.40
2023-03-06T02:09:17.054Z,25.50
2023-03-06T02:10:17.057Z,27.20
2023-03-06T02:11:17.123Z,23.50
2023-03-06T02:12:16.990Z,25.20
2023-03-06T02:13:16.997Z,25.80
2023-03-06T02:14:16.986Z,28.20
2023-03-06T02:15:16.951Z,25.20
2023-03-06T02:16:17.011Z,25.20
2023-03-06T02:17:16.946Z,23.90
2023-03-06T02:18:16.925Z,24.40
2023-03-06T02:19:16.971Z,25.40
2023-03-06T02:20:16.874Z,24.00
2023-03-06T02:21:16.856Z,24.60
2023-03-06T02:22:17.014Z,24.50
2023-03-06T02:23:16.857Z,24.20
2023-03-06T02:24:16.844Z,23.70
2023-03-06T02:25:16.980Z,22.00
2023-03-06T02:26:16.814Z,23.80
2023-03-06T02:27:16.804Z,23.50
2023-03-06T02:28:31.598Z,22.60
2023-03-06T02:29:17.745Z,23.80
2023-03-06T02:30:16.752Z,22.70
2023-03-06T02:31:16.878Z,21.70
2023-03-06T02:32:16.873Z,23.30
2023-03-06T02:33:16.724Z,23.70
2023-03-06T02:34:16.745Z,23.60
2023-03-06T02:35:16.746Z,22.70
2023-03-06T02:36:16.670Z,21.10
2023-03-06T02:37:16.646Z,23.90
2023-03-06T02:38:16.800Z,22.60
2023-03-06T02:39:16.689Z,23.80
2023-03-06T02:40:16.621Z,22.90
2023-03-06T02:41:16.737Z,23.70
2023-03-06T02:42:16.624Z,20.90
2023-03-06T02:43:16.684Z,22.90
2023-03-06T02:44:16.674Z,20.60
2023-03-06T02:45:16.544Z,21.70
2023-03-06T02:46:16.583Z,22.80
2023-03-06T02:47:16.571Z,19.10
2023-03-06T02:48:16.569Z,22.40
2023-03-06T02:49:16.549Z,21.20
2023-03-06T02:50:16.637Z,20.90
2023-03-06T02:51:16.469Z,22.50
2023-03-06T02:52:16.451Z,20.70
2023-03-06T02:53:16.545Z,23.90
2023-03-06T02:54:16.417Z,24.90
2023-03-06T02:55:16.508Z,21.00
2023-03-06T02:56:16.468Z,21.10
2023-03-06T02:57:16.400Z,23.10
2023-03-06T02:58:16.379Z,22.80
2023-03-06T02:59:16.442Z,23.80
2023-03-06T03:00:16.356Z,19.70
2023-03-06T03:01:16.441Z,24.00
2023-03-06T03:02:16.437Z,23.90
2023-03-06T03:03:16.331Z,23.40
2023-03-06T03:04:16.432Z,22.10
2023-03-06T03:05:16.300Z,24.90
2023-03-06T03:06:16.328Z,23.10
2023-03-06T03:07:16.297Z,20.70
2023-03-06T03:08:16.276Z,20.90
2023-03-06T03:09:16.263Z,22.90
2023-03-06T03:10:16.268Z,20.30
2023-03-06T03:11:16.192Z,22.90
2023-03-06T03:12:16.255Z,21.00
2023-03-06T03:13:16.198Z,21.00
2023-03-06T03:14:16.216Z,23.90
2023-03-06T03:15:16.200Z,22.00
2023-03-06T03:16:16.201Z,21.50
2023-03-06T03:17:16.125Z,20.90
2023-03-06T03:18:16.114Z,21.30
2023-03-06T03:19:16.141Z,21.10
2023-03-06T03:20:16.151Z,20.00
2023-03-06T03:21:16.239Z,20.90
2023-03-06T03:22:16.053Z,19.40
2023-03-06T03:23:16.066Z,21.70
2023-03-06T03:24:16.092Z,20.10
2023-03-06T03:25:16.084Z,21.70
2023-03-06T03:26:16.087Z,21.50
2023-03-06T03:27:16.032Z,20.50
2023-03-06T03:28:15.984Z,20.30
2023-03-06T03:29:15.969Z,19.30
2023-03-06T03:30:15.997Z,19.90
2023-03-06T03:31:16.042Z,23.50
2023-03-06T03:32:15.938Z,20.30
2023-03-06T03:33:15.888Z,21.20
2023-03-06T03:34:15.905Z,22.40
2023-03-06T03:35:15.846Z,21.20
2023-03-06T03:36:15.880Z,21.80
2023-03-06T03:37:15.845Z,17.40
2023-03-06T03:38:15.972Z,20.70
2023-03-06T03:39:15.828Z,21.80
2023-03-06T03:40:15.784Z,20.40
2023-03-06T03:41:15.779Z,19.10
2023-03-06T03:42:15.770Z,21.10
2023-03-06T03:43:15.914Z,21.90
2023-03-06T03:44:15.734Z,20.20
2023-03-06T03:45:15.722Z,20.10
2023-03-06T03:46:15.743Z,19.50
2023-03-06T03:47:15.730Z,19.40
2023-03-06T03:48:15.696Z,20.40
2023-03-06T03:49:15.704Z,20.00
2023-03-06T03:50:15.700Z,20.40
2023-03-06T03:51:15.656Z,19.30
2023-03-06T03:52:15.634Z,20.10
2023-03-06T03:53:15.651Z,18.50
2023-03-06T03:54:15.635Z,17.90
2023-03-06T03:55:15.625Z,19.70
2023-03-06T03:56:15.599Z,20.80
2023-03-06T03:57:15.574Z,20.90
2023-03-06T03:58:15.605Z,19.00
2023-03-06T03:59:15.580Z,19.00
2023-03-06T04:00:15.524Z,20.30
2023-03-06T04:01:15.543Z,20.10
2023-03-06T04:02:15.579Z,22.40
2023-03-06T04:03:15.490Z,20.00
2023-03-06T04:04:15.480Z,18.70
2023-03-06T04:05:15.489Z,21.60
2023-03-06T04:06:16.452Z,19.80
2023-03-06T04:07:15.464Z,22.60
2023-03-06T04:08:15.414Z,17.80
2023-03-06T04:09:15.430Z,21.00
2023-03-06T04:10:15.387Z,18.80
2023-03-06T04:11:15.429Z,21.10
2023-03-06T04:12:15.379Z,19.30
2023-03-06T04:13:15.370Z,19.80
2023-03-06T04:14:15.348Z,23.00
2023-03-06T04:15:15.388Z,21.00
2023-03-06T04:16:15.322Z,21.80
2023-03-06T04:17:15.296Z,19.90
2023-03-06T04:18:15.297Z,19.00
2023-03-06T04:19:15.306Z,20.40
2023-03-06T04:20:15.251Z,18.80
2023-03-06T04:21:15.254Z,19.00
2023-03-06T04:22:15.249Z,21.40
2023-03-06T04:23:15.321Z,20.90
2023-03-06T04:24:15.214Z,22.20
2023-03-06T04:25:15.246Z,20.60
2023-03-06T04:26:15.190Z,20.40
2023-03-06T04:27:15.355Z,19.80
2023-03-06T04:28:15.165Z,19.90
2023-03-06T04:29:15.158Z,20.60
2023-03-06T04:30:15.138Z,19.40
2023-03-06T04:31:15.147Z,21.70
2023-03-06T04:32:15.225Z,19.50
2023-03-06T04:33:15.107Z,21.00
2023-03-06T04:34:15.097Z,21.80
2023-03-06T04:35:15.066Z,20.30
2023-03-06T04:36:15.176Z,20.20
2023-03-06T04:37:15.072Z,23.40
2023-03-06T04:38:15.026Z,19.30
2023-03-06T04:39:15.151Z,20.80
2023-03-06T04:40:15.012Z,20.30
2023-03-06T04:41:14.984Z,26.00
2023-03-06T04:42:15.001Z,31.80
2023-03-06T04:43:15.017Z,29.00
2023-03-06T04:44:14.985Z,26.50
2023-03-06T04:45:15.019Z,23.80
2023-03-06T04:46:14.947Z,21.60
2023-03-06T04:47:14.972Z,27.80
2023-03-06T04:48:14.950Z,23.40
2023-03-06T04:49:14.897Z,22.40
2023-03-06T04:50:14.906Z,21.40
2023-03-06T04:51:14.907Z,23.50
2023-03-06T04:52:14.848Z,20.50
2023-03-06T04:53:14.857Z,22.20
2023-03-06T04:54:14.819Z,19.70
2023-03-06T04:55:14.894Z,20.40
2023-03-06T04:56:14.794Z,19.60
2023-03-06T04:57:14.777Z,21.40
2023-03-06T04:58:14.780Z,21.00
2023-03-06T04:59:14.748Z,19.00
2023-03-06T05:00:14.761Z,20.40
2023-03-06T05:01:14.781Z,20.00
2023-03-06T05:02:14.837Z,19.70
2023-03-06T05:03:14.710Z,19.30
2023-03-06T05:04:14.765Z,19.90
2023-03-06T05:05:14.678Z,19.40
2023-03-06T05:06:14.667Z,20.00
2023-03-06T05:07:14.674Z,19.00
2023-03-06T05:08:14.634Z,19.20
2023-03-06T05:09:14.649Z,18.50
2023-03-06T05:10:14.611Z,18.00
2023-03-06T05:11:14.581Z,19.50
2023-03-06T05:12:14.610Z,18.50
2023-03-06T05:13:14.562Z,18.60
2023-03-06T05:14:14.579Z,21.40
2023-03-06T05:15:14.671Z,17.40
2023-03-06T05:16:14.567Z,17.40
2023-03-06T05:17:14.507Z,18.10
2023-03-06T05:18:14.525Z,21.10
2023-03-06T05:19:14.486Z,19.50
2023-03-06T05:20:14.515Z,17.90
2023-03-06T05:21:14.528Z,19.10
2023-03-06T05:22:14.439Z,19.60
2023-03-06T05:23:14.438Z,19.00
2023-03-06T05:24:14.527Z,16.80
2023-03-06T05:25:14.427Z,17.70
2023-03-06T05:26:14.390Z,19.10
2023-03-06T05:27:16.886Z,19.50
2023-03-06T05:28:14.378Z,18.10
2023-03-06T05:29:14.373Z,17.60
2023-03-06T05:30:14.368Z,17.50
2023-03-06T05:31:14.368Z,19.10
2023-03-06T05:32:14.533Z,17.10
2023-03-06T05:33:14.326Z,18.10
2023-03-06T05:34:14.306Z,18.60
2023-03-06T05:35:14.295Z,17.70
2023-03-06T05:36:14.270Z,17.90
2023-03-06T05:37:14.308Z,19.60
2023-03-06T05:38:14.239Z,19.40
2023-03-06T05:39:14.282Z,20.00
2023-03-06T05:40:14.215Z,18.30
2023-03-06T05:41:14.237Z,19.10
2023-03-06T05:42:14.210Z,17.40
2023-03-06T05:44:24.070Z,17.90
2023-03-06T05:45:24.032Z,18.10
2023-03-06T05:46:24.101Z,18.40
2023-03-06T05:47:24.044Z,20.30
2023-03-06T05:48:24.003Z,22.30
2023-03-06T05:49:23.983Z,16.80
2023-03-06T05:50:24.054Z,17.10
2023-03-06T05:51:23.946Z,18.70
2023-03-06T05:52:23.954Z,19.80
2023-03-06T05:53:23.989Z,18.40
2023-03-06T05:54:23.909Z,18.00
2023-03-06T05:55:23.891Z,17.90
2023-03-06T05:56:23.970Z,18.30
2023-03-06T05:57:23.899Z,19.30
2023-03-06T05:58:23.862Z,19.70
2023-03-06T05:59:23.841Z,18.10
2023-03-06T06:00:23.908Z,17.50
2023-03-06T06:01:23.839Z,19.60
2023-03-06T06:02:23.873Z,20.40
2023-03-06T06:03:23.806Z,18.10
2023-03-06T06:04:23.826Z,18.00
2023-03-06T06:05:23.765Z,17.00
2023-03-06T06:06:23.770Z,20.00
2023-03-06T06:07:23.750Z,20.40
2023-03-06T06:08:23.794Z,16.90
2023-03-06T06:09:23.730Z,18.40
2023-03-06T06:10:23.717Z,18.40
2023-03-06T06:11:23.697Z,19.90
2023-03-06T06:12:23.718Z,20.30
2023-03-06T06:13:23.681Z,18.90
2023-03-06T06:14:23.704Z,20.30
2023-03-06T06:15:23.627Z,21.60
2023-03-06T06:16:23.706Z,19.20
2023-03-06T06:17:23.641Z,17.80
2023-03-06T06:18:23.610Z,17.40
2023-03-06T06:19:23.632Z,19.30
2023-03-06T06:20:23.621Z,17.80
2023-03-06T06:21:23.574Z,18.10
2023-03-06T06:22:23.565Z,19.60
2023-03-06T06:23:23.575Z,20.20
2023-03-06T06:24:23.525Z,19.40
2023-03-06T06:25:23.514Z,18.20
2023-03-06T06:26:23.545Z,18.10
2023-03-06T06:27:23.485Z,20.20
2023-03-06T06:28:23.475Z,19.80
2023-03-06T06:29:23.541Z,21.00
2023-03-06T06:30:23.439Z,18.00
2023-03-06T06:31:23.472Z,20.30
2023-03-06T06:32:23.578Z,19.30
2023-03-06T06:33:23.418Z,19.60
2023-03-06T06:34:23.403Z,19.60
2023-03-06T06:35:23.552Z,18.80
2023-03-06T06:36:23.398Z,22.40
2023-03-06T06:37:23.363Z,19.10
2023-03-06T06:38:23.429Z,18.40
2023-03-06T06:39:23.372Z,20.20
2023-03-06T06:40:23.333Z,19.60
2023-03-06T06:42:33.318Z,19.90
2023-03-06T06:43:24.369Z,19.70
2023-03-06T06:44:23.312Z,19.80
2023-03-06T06:45:23.245Z,20.30
2023-03-06T06:47:09.351Z,20.20
2023-03-06T06:47:25.552Z,21.50
2023-03-06T06:48:23.396Z,19.10
2023-03-06T06:49:23.304Z,17.60
2023-03-06T06:50:23.363Z,19.70
2023-03-06T06:51:23.249Z,19.70
2023-03-06T06:52:23.193Z,19.50
2023-03-06T06:53:23.155Z,18.10
2023-03-06T06:54:23.328Z,19.60
2023-03-06T06:55:23.290Z,20.10
2023-03-06T06:56:23.192Z,18.30
2023-03-06T06:57:23.223Z,25.10
2023-03-06T06:58:23.222Z,19.90
2023-03-06T06:59:23.161Z,17.40
2023-03-06T07:00:23.069Z,18.20
2023-03-06T07:01:23.197Z,20.10
2023-03-06T07:02:23.076Z,19.60
2023-03-06T07:03:23.091Z,19.70
2023-03-06T07:04:23.163Z,19.10
2023-03-06T07:05:23.056Z,21.30
2023-03-06T07:06:23.010Z,21.40
2023-03-06T07:07:25.368Z,18.30
2023-03-06T07:08:23.106Z,17.60
2023-03-06T07:09:22.926Z,16.90
2023-03-06T07:10:23.027Z,17.80
2023-03-06T07:11:22.918Z,19.80
2023-03-06T07:12:22.931Z,22.40
2023-03-06T07:13:23.007Z,20.70
2023-03-06T07:14:23.050Z,20.10
2023-03-06T07:15:22.864Z,20.50
2023-03-06T07:16:22.994Z,20.80
2023-03-06T07:17:22.839Z,18.40
2023-03-06T07:18:22.849Z,17.90
2023-03-06T07:19:22.841Z,20.40
2023-03-06T07:20:22.849Z,23.00
2023-03-06T07:21:22.810Z,18.30
2023-03-06T07:22:41.565Z,19.90
2023-03-06T07:23:23.791Z,18.10
2023-03-06T07:24:22.777Z,18.80
2023-03-06T07:25:22.857Z,19.90
2023-03-06T07:26:22.790Z,19.90
2023-03-06T07:27:22.710Z,19.70
2023-03-06T07:28:22.889Z,19.20
2023-03-06T07:29:22.746Z,20.20
2023-03-06T07:30:22.656Z,21.10
2023-03-06T07:31:27.165Z,19.80
2023-03-06T07:32:22.764Z,19.30
2023-03-06T07:33:22.639Z,18.20
2023-03-06T07:34:22.679Z,21.90
2023-03-06T07:35:22.749Z,20.20
2023-03-06T07:36:22.636Z,22.00
2023-03-06T07:37:22.609Z,20.50
2023-03-06T07:38:22.726Z,23.80
2023-03-06T07:39:22.647Z,23.10
2023-03-06T07:40:22.560Z,21.00
2023-03-06T07:41:22.823Z,20.20
2023-03-06T07:42:22.560Z,20.20
2023-03-06T07:43:22.700Z,20.30
2023-03-06T07:44:22.616Z,20.20
2023-03-06T07:45:22.473Z,18.60
2023-03-06T07:46:22.479Z,17.80
2023-03-06T07:47:22.465Z,18.00
2023-03-06T07:48:22.461Z,21.50
2023-03-06T07:49:22.425Z,20.20
2023-03-06T07:50:22.410Z,19.70
2023-03-06T07:51:22.390Z,21.70
2023-03-06T07:52:22.402Z,20.00
2023-03-06T07:53:22.428Z,22.40
2023-03-06T07:54:22.323Z,18.20
2023-03-06T07:55:22.383Z,21.80
2023-03-06T07:56:22.477Z,21.80
2023-03-06T07:57:22.273Z,19.90
2023-03-06T07:58:22.385Z,18.00
2023-03-06T07:59:22.292Z,21.20
2023-03-06T08:00:22.295Z,22.40
2023-03-06T08:01:22.226Z,20.10
2023-03-06T08:02:22.332Z,17.80
2023-03-06T08:03:22.370Z,13.60
2023-03-06T08:04:22.203Z,14.90
2023-03-06T08:05:22.206Z,13.40
2023-03-06T08:06:22.346Z,12.00
2023-03-06T08:07:22.182Z,16.30
2023-03-06T08:08:22.172Z,15.60
2023-03-06T08:09:22.285Z,19.30
2023-03-06T08:10:22.225Z,15.90
2023-03-06T08:11:22.154Z,16.70
2023-03-06T08:12:22.386Z,17.60
2023-03-06T08:13:22.123Z,15.90
2023-03-06T08:14:22.158Z,18.40
2023-03-06T08:15:22.037Z,17.10
2023-03-06T08:16:22.377Z,15.20
2023-03-06T08:17:22.066Z,17.80
2023-03-06T08:18:22.047Z,10.20
2023-03-06T08:19:22.109Z,16.10
2023-03-06T08:20:22.072Z,17.50
2023-03-06T08:21:21.976Z,17.50
2023-03-06T08:22:22.209Z,17.40
2023-03-06T08:23:21.941Z,14.70
2023-03-06T08:24:21.959Z,13.00
2023-03-06T08:25:22.032Z,18.20
2023-03-06T08:26:21.970Z,16.60
2023-03-06T08:27:21.958Z,16.10
2023-03-06T08:28:21.915Z,16.50
2023-03-06T08:29:21.851Z,16.60
2023-03-06T08:30:21.835Z,14.60
2023-03-06T08:31:22.070Z,17.60
2023-03-06T08:32:21.890Z,17.10
2023-03-06T08:33:21.835Z,17.70
2023-03-06T08:34:21.954Z,16.20
2023-03-06T08:35:21.871Z,17.10
2023-03-06T08:36:21.853Z,17.70
2023-03-06T08:37:21.828Z,17.60
2023-03-06T08:38:21.904Z,17.70
2023-03-06T08:39:21.759Z,19.20
2023-03-06T08:40:21.729Z,19.60
2023-03-06T08:41:21.772Z,16.70
2023-03-06T08:42:21.775Z,18.90
2023-03-06T08:43:21.741Z,17.40
2023-03-06T08:44:21.762Z,18.20
2023-03-06T08:45:21.665Z,16.50
2023-03-06T08:46:21.669Z,19.30
2023-03-06T08:47:21.708Z,17.40
2023-03-06T08:48:21.620Z,18.70
2023-03-06T08:49:21.649Z,17.70
2023-03-06T08:50:21.731Z,17.60
2023-03-06T08:51:21.562Z,18.70
2023-03-06T08:52:21.570Z,17.90
2023-03-06T08:53:22.708Z,17.40
2023-03-06T08:54:22.518Z,19.30
2023-03-06T08:55:21.528Z,19.40
2023-03-06T08:56:21.697Z,16.00
2023-03-06T08:57:21.555Z,17.00
2023-03-06T08:58:21.450Z,18.50
2023-03-06T08:59:21.715Z,18.20
2023-03-06T09:00:21.523Z,19.60
2023-03-06T09:01:21.544Z,18.50
2023-03-06T09:02:21.525Z,17.30
2023-03-06T09:03:21.457Z,20.40
2023-03-06T09:04:21.474Z,18.50
2023-03-06T09:05:21.360Z,21.80
2023-03-06T09:06:21.369Z,19.60
2023-03-06T09:07:21.485Z,18.10
2023-03-06T09:08:21.398Z,19.40
2023-03-06T09:09:21.372Z,17.00
2023-03-06T09:10:21.604Z,19.80
2023-03-06T09:11:21.318Z,17.80
2023-03-06T09:12:21.379Z,19.50
2023-03-06T09:13:21.470Z,17.30
2023-03-06T09:14:21.372Z,17.30
2023-03-06T09:15:21.339Z,18.40
2023-03-06T09:16:21.426Z,19.20
2023-03-06T09:17:21.319Z,18.40
2023-03-06T09:18:21.242Z,16.50
2023-03-06T09:19:29.929Z,16.80
2023-03-06T09:20:21.208Z,18.30
2023-03-06T09:21:21.189Z,17.80
2023-03-06T09:22:21.325Z,18.80
2023-03-06T09:23:21.234Z,17.20
2023-03-06T09:24:21.209Z,16.40
2023-03-06T09:25:21.151Z,19.20
2023-03-06T09:26:21.184Z,18.50
2023-03-06T09:27:21.179Z,19.00
2023-03-06T09:28:21.113Z,16.30
2023-03-06T09:29:21.185Z,19.50
2023-03-06T09:30:21.048Z,19.40
2023-03-06T09:31:21.040Z,17.90
2023-03-06T09:32:21.271Z,20.30
2023-03-06T09:33:21.086Z,18.70
2023-03-06T09:34:20.990Z,19.20
2023-03-06T09:35:21.051Z,17.20
2023-03-06T09:36:21.112Z,17.20
2023-03-06T09:37:20.982Z,17.00
2023-03-06T09:38:20.965Z,17.30
2023-03-06T09:39:20.946Z,17.30
2023-03-06T09:40:20.900Z,17.80
2023-03-06T09:41:20.921Z,18.60
2023-03-06T09:42:20.886Z,18.70
2023-03-06T09:43:20.855Z,19.30
2023-03-06T09:44:20.883Z,17.40
2023-03-06T09:45:20.850Z,16.30
2023-03-06T09:46:20.841Z,16.30
2023-03-06T09:47:20.817Z,18.90
2023-03-06T09:48:20.851Z,16.90
2023-03-06T09:49:20.819Z,15.80
2023-03-06T09:50:20.783Z,16.10
2023-03-06T09:51:20.768Z,14.50
2023-03-06T09:52:20.753Z,19.60
2023-03-06T09:53:20.765Z,20.10
2023-03-06T09:54:20.793Z,17.60
2023-03-06T09:55:20.704Z,11.70
2023-03-06T09:56:20.685Z,17.20
2023-03-06T09:57:20.740Z,16.70
2023-03-06T09:58:20.668Z,18.20
2023-03-06T09:59:20.663Z,14.40
2023-03-06T10:00:20.666Z,20.60
2023-03-06T10:01:20.618Z,18.70
2023-03-06T10:02:20.744Z,20.10
2023-03-06T10:03:20.723Z,18.40
2023-03-06T10:04:20.625Z,17.50
2023-03-06T10:05:20.619Z,13.30
2023-03-06T10:06:20.592Z,15.70
2023-03-06T10:07:20.542Z,15.80
2023-03-06T10:08:20.581Z,16.80
2023-03-06T10:09:20.540Z,17.90
2023-03-06T10:10:20.523Z,15.70
2023-03-06T10:11:20.612Z,16.20
2023-03-06T10:12:20.668Z,16.40
2023-03-06T10:13:20.483Z,18.20
2023-03-06T10:14:20.444Z,18.60
2023-03-06T10:15:20.550Z,19.20
2023-03-06T10:16:20.431Z,13.40
2023-03-06T10:17:20.475Z,12.80
2023-03-06T10:18:20.384Z,12.60
2023-03-06T10:19:20.411Z,15.90
2023-03-06T10:20:20.376Z,16.90
2023-03-06T10:21:20.386Z,16.20
2023-03-06T10:22:20.368Z,15.80
2023-03-06T10:23:20.368Z,13.20
2023-03-06T10:24:20.343Z,13.30
2023-03-06T10:25:20.305Z,16.30
2023-03-06T10:26:20.462Z,16.30
2023-03-06T10:27:20.328Z,13.60
2023-03-06T10:28:20.255Z,14.50
2023-03-06T10:29:20.345Z,15.60
2023-03-06T10:30:20.232Z,13.90
2023-03-06T10:31:20.252Z,18.80
2023-03-06T10:32:20.343Z,17.80
2023-03-06T10:33:20.198Z,18.00
2023-03-06T10:34:20.218Z,21.40
2023-03-06T10:35:20.321Z,17.60
2023-03-06T10:36:20.200Z,16.30
2023-03-06T10:37:20.143Z,18.60
2023-03-06T10:38:20.219Z,18.40
2023-03-06T10:39:20.129Z,16.80
2023-03-06T10:40:20.143Z,14.30
2023-03-06T10:41:20.143Z,15.40
2023-03-06T10:42:20.095Z,17.30
2023-03-06T10:43:20.101Z,17.30
2023-03-06T10:44:20.123Z,14.50
2023-03-06T10:45:20.035Z,13.60
2023-03-06T10:46:20.067Z,15.10
2023-03-06T10:47:20.080Z,13.70
2023-03-06T10:48:20.065Z,15.60
2023-03-06T10:49:20.003Z,15.30
2023-03-06T10:50:20.080Z,16.60
2023-03-06T10:51:20.017Z,13.30
2023-03-06T10:52:19.947Z,10.80
2023-03-06T10:53:20.016Z,16.30
2023-03-06T10:54:19.913Z,16.70
2023-03-06T10:55:19.916Z,15.10
2023-03-06T10:56:19.919Z,16.40
2023-03-06T10:57:19.904Z,13.10
2023-03-06T10:58:19.897Z,17.00
2023-03-06T10:59:19.945Z,17.10
2023-03-06T11:00:20.717Z,15.40
2023-03-06T11:01:19.936Z,15.80
2023-03-06T11:02:19.830Z,17.00
2023-03-06T11:03:19.819Z,16.90
2023-03-06T11:04:19.834Z,15.60
2023-03-06T11:05:19.855Z,16.30
2023-03-06T11:06:19.781Z,16.50
2023-03-06T11:07:19.763Z,13.90
2023-03-06T11:08:19.739Z,16.30
2023-03-06T11:09:19.758Z,16.60
2023-03-06T11:10:19.913Z,12.80
2023-03-06T11:11:34.984Z,19.90
2023-03-06T11:12:20.669Z,15.80
2023-03-06T11:13:19.679Z,17.60
2023-03-06T11:14:19.710Z,20.00
2023-03-06T11:15:19.640Z,16.20
2023-03-06T11:16:19.672Z,18.00
2023-03-06T11:17:19.704Z,14.50
2023-03-06T11:18:19.618Z,15.80
2023-03-06T11:19:19.632Z,20.80
2023-03-06T11:20:19.638Z,14.90
2023-03-06T11:21:19.578Z,15.50
2023-03-06T11:22:19.593Z,16.30
2023-03-06T11:23:19.629Z,19.00
2023-03-06T11:24:19.553Z,14.30
2023-03-06T11:25:19.510Z,16.60
2023-03-06T11:26:19.569Z,19.80
2023-03-06T11:27:19.518Z,12.70
2023-03-06T11:28:19.457Z,16.60
2023-03-06T11:29:19.551Z,16.50
2023-03-06T11:30:19.460Z,14.70
2023-03-06T11:31:19.509Z,16.20
2023-03-06T11:32:19.489Z,15.10
2023-03-06T11:33:19.400Z,17.40
2023-03-06T11:34:19.403Z,16.60
2023-03-06T11:35:19.439Z,18.00
2023-03-06T11:36:19.386Z,9.50
2023-03-06T11:37:19.365Z,11.90
2023-03-06T11:38:19.366Z,16.30
2023-03-06T11:39:19.347Z,11.20
2023-03-06T11:40:19.314Z,17.80
2023-03-06T11:41:19.332Z,13.40
2023-03-06T11:42:19.299Z,16.00
2023-03-06T11:43:19.296Z,12.20
2023-03-06T11:44:19.303Z,17.00
2023-03-06T11:45:19.308Z,18.20
2023-03-06T11:46:19.237Z,18.80
2023-03-06T11:47:19.268Z,17.20
2023-03-06T11:48:19.269Z,12.80
2023-03-06T11:49:19.256Z,16.40
2023-03-06T11:50:19.294Z,15.60
2023-03-06T11:51:19.206Z,15.40
2023-03-06T11:52:19.154Z,16.40
2023-03-06T11:53:19.221Z,16.20
2023-03-06T11:54:19.213Z,16.30
2023-03-06T11:55:19.116Z,15.10
2023-03-06T11:56:19.129Z,14.40
2023-03-06T11:57:19.124Z,16.00
2023-03-06T11:58:19.055Z,14.30
2023-03-06T11:59:19.056Z,17.50
2023-03-06T12:00:19.114Z,15.60
2023-03-06T12:01:19.054Z,13.70
2023-03-06T12:02:19.105Z,11.40
2023-03-06T12:03:19.084Z,17.40
2023-03-06T12:04:19.059Z,14.30
2023-03-06T12:05:19.025Z,15.70
2023-03-06T12:06:19.019Z,14.70
2023-03-06T12:07:18.986Z,16.60
2023-03-06T12:08:18.945Z,17.90
2023-03-06T12:09:18.979Z,12.00
2023-03-06T12:10:18.906Z,16.30
2023-03-06T12:11:18.909Z,14.20
2023-03-06T12:12:18.947Z,15.50
2023-03-06T12:13:18.916Z,18.40
2023-03-06T12:14:18.851Z,17.00
2023-03-06T12:15:18.933Z,16.70
2023-03-06T12:16:18.882Z,12.70
2023-03-06T12:17:18.871Z,16.10
2023-03-06T12:18:18.834Z,17.30
2023-03-06T12:19:18.824Z,17.10
2023-03-06T12:20:18.792Z,14.50
2023-03-06T12:21:18.890Z,16.40
2023-03-06T12:22:18.786Z,17.10
2023-03-06T12:23:18.755Z,17.70
2023-03-06T12:24:18.764Z,17.20
2023-03-06T12:25:18.790Z,17.20
2023-03-06T12:26:18.714Z,17.90
2023-03-06T12:27:18.703Z,15.80
2023-03-06T12:28:18.685Z,18.70
2023-03-06T12:29:18.677Z,14.60
2023-03-06T12:30:18.668Z,18.50
2023-03-06T12:31:18.806Z,11.50
2023-03-06T12:32:18.734Z,12.90
2023-03-06T12:33:18.644Z,11.90
2023-03-06T12:34:18.658Z,13.70
2023-03-06T12:35:18.610Z,14.80
2023-03-06T12:36:18.608Z,16.20
2023-03-06T12:37:18.611Z,13.90
2023-03-06T12:38:18.544Z,12.80
2023-03-06T12:39:18.551Z,18.40
2023-03-06T12:40:18.573Z,14.00
2023-03-06T12:41:18.503Z,15.30
2023-03-06T12:42:23.389Z,14.50
2023-03-06T12:43:19.515Z,16.20
2023-03-06T12:44:18.512Z,14.30
2023-03-06T12:45:18.481Z,18.20
2023-03-06T12:46:18.547Z,13.50
2023-03-06T12:47:18.429Z,11.10
2023-03-06T12:48:18.397Z,10.40
2023-03-06T12:49:31.169Z,12.30
2023-03-06T12:50:19.423Z,14.60
2023-03-06T12:51:18.364Z,15.30
2023-03-06T12:52:18.692Z,14.30
2023-03-06T12:53:18.384Z,13.20
2023-03-06T12:54:18.330Z,13.40